createdAt,value
2019-02-18T00:02:31.944Z,9.97
2019-02-18T00:05:12.619Z,9.03
2019-02-18T00:07:42.816Z,7.80
2019-02-18T00:10:31.179Z,8.37
2019-02-18T00:13:01.443Z,8.20
2019-02-18T00:15:31.653Z,8.57
2019-02-18T00:18:01.861Z,9.33
2019-02-18T00:20:32.065Z,9.30
2019-02-18T00:23:02.264Z,8.80
2019-02-18T00:25:32.479Z,8.10
2019-02-18T00:28:02.690Z,8.97
2019-02-18T00:30:32.868Z,8.77
2019-02-18T00:33:03.055Z,8.73
2019-02-18T00:35:36.222Z,8.07
2019-02-18T00:38:06.424Z,8.67
2019-02-18T00:40:43.613Z,8.80
2019-02-18T00:43:13.814Z,8.60
2019-02-18T00:45:43.992Z,8.63
2019-02-18T00:48:14.191Z,9.23
2019-02-18T00:50:44.384Z,8.90
2019-02-18T00:53:14.677Z,8.83
2019-02-18T00:55:44.831Z,8.57
2019-02-18T00:58:15.021Z,8.67
2019-02-18T01:00:52.013Z,8.53
2019-02-18T01:03:37.532Z,8.67
2019-02-18T01:06:07.704Z,7.97
2019-02-18T01:08:37.899Z,8.07
2019-02-18T01:11:29.326Z,8.00
2019-02-18T01:13:59.522Z,8.17
2019-02-18T01:16:29.691Z,9.03
2019-02-18T01:19:35.471Z,8.67
2019-02-18T01:22:11.125Z,8.97
2019-02-18T01:24:41.333Z,8.37
2019-02-18T01:27:11.514Z,8.13
2019-02-18T01:29:56.728Z,8.77
2019-02-18T01:32:26.902Z,8.40
2019-02-18T01:34:57.103Z,9.13
2019-02-18T01:37:27.290Z,8.13
2019-02-18T01:40:02.205Z,8.67
2019-02-18T01:42:58.382Z,8.37
2019-02-18T01:45:28.585Z,9.03
2019-02-18T01:47:58.784Z,9.60
2019-02-18T01:50:30.040Z,9.40
2019-02-18T01:53:00.230Z,8.93
2019-02-18T01:55:44.572Z,8.53
2019-02-18T01:58:14.763Z,9.07
2019-02-18T02:00:48.184Z,9.33
2019-02-18T02:03:20.245Z,8.97
2019-02-18T02:05:50.512Z,8.80
2019-02-18T02:08:25.231Z,9.13
2019-02-18T02:11:03.707Z,9.30
2019-02-18T02:13:35.650Z,8.73
2019-02-18T02:16:07.502Z,8.67
2019-02-18T02:18:37.683Z,8.90
2019-02-18T02:21:07.891Z,8.90
2019-02-18T02:23:38.059Z,8.70
2019-02-18T02:26:09.352Z,8.93
2019-02-18T02:28:39.515Z,8.83
2019-02-18T02:31:09.719Z,9.03
2019-02-18T02:33:39.973Z,8.83
2019-02-18T02:36:10.173Z,9.23
2019-02-18T02:38:42.294Z,8.50
2019-02-18T02:41:12.472Z,8.33
2019-02-18T02:43:45.703Z,7.80
2019-02-18T02:46:15.905Z,8.23
2019-02-18T02:48:47.127Z,8.60
2019-02-18T02:51:23.053Z,8.10
2019-02-18T02:54:04.368Z,8.73
2019-02-18T02:57:07.845Z,8.73
2019-02-18T02:59:43.102Z,8.53
2019-02-18T03:02:14.178Z,8.70
2019-02-18T03:04:44.389Z,8.27
2019-02-18T03:07:14.568Z,8.63
2019-02-18T03:09:45.732Z,8.47
2019-02-18T03:12:16.831Z,8.27
2019-02-18T03:14:47.017Z,8.70
2019-02-18T03:17:17.225Z,8.17
2019-02-18T03:19:47.419Z,7.97
2019-02-18T03:22:18.745Z,8.27
2019-02-18T03:25:23.115Z,7.50
2019-02-18T03:28:19.026Z,7.97
2019-02-18T03:30:55.439Z,8.20
2019-02-18T03:33:45.275Z,8.10
2019-02-18T03:36:15.938Z,7.70
2019-02-18T03:38:46.119Z,7.33
2019-02-18T03:41:28.368Z,7.23
2019-02-18T03:43:59.622Z,7.37
2019-02-18T03:46:29.826Z,7.63
2019-02-18T03:49:00.004Z,7.90
2019-02-18T03:51:40.784Z,7.33
2019-02-18T03:54:30.789Z,7.43
2019-02-18T03:57:08.613Z,8.00
2019-02-18T03:59:38.807Z,7.30
2019-02-18T04:02:09.010Z,8.07
2019-02-18T04:04:55.179Z,7.73
2019-02-18T04:07:25.359Z,8.00
2019-02-18T04:09:56.539Z,7.77
2019-02-18T04:12:51.985Z,7.80
2019-02-18T04:15:29.099Z,7.70
2019-02-18T04:17:59.286Z,7.17
2019-02-18T04:20:29.479Z,7.90
2019-02-18T04:22:59.685Z,7.57
2019-02-18T04:25:29.880Z,7.80
2019-02-18T04:28:06.185Z,8.10
2019-02-18T04:30:36.360Z,7.57
2019-02-18T04:33:06.584Z,7.47
2019-02-18T04:35:36.766Z,8.67
2019-02-18T04:38:06.953Z,7.47
2019-02-18T04:40:40.815Z,7.83
2019-02-18T04:43:11.011Z,6.90
2019-02-18T04:45:43.311Z,7.70
2019-02-18T04:48:21.666Z,6.93
2019-02-18T04:50:56.229Z,7.57
2019-02-18T04:53:27.357Z,8.03
2019-02-18T04:55:57.559Z,7.70
2019-02-18T04:58:27.715Z,7.83
2019-02-18T05:01:24.084Z,7.30
2019-02-18T05:03:59.900Z,7.63
2019-02-18T05:06:30.084Z,7.77
2019-02-18T05:09:05.324Z,7.13
2019-02-18T05:11:36.068Z,7.00
2019-02-18T05:14:15.076Z,7.60
2019-02-18T05:16:45.287Z,7.43
2019-02-18T05:19:58.871Z,8.03
2019-02-18T05:22:29.068Z,7.97
2019-02-18T05:25:02.367Z,8.00
2019-02-18T05:27:33.535Z,9.03
2019-02-18T05:30:12.323Z,9.50
2019-02-18T05:32:48.335Z,9.57
2019-02-18T05:35:41.679Z,8.80
2019-02-18T05:38:11.892Z,9.10
2019-02-18T05:40:42.067Z,9.23
2019-02-18T05:43:17.905Z,9.07
2019-02-18T05:45:49.002Z,9.83
2019-02-18T05:48:19.196Z,8.77
2019-02-18T05:50:54.076Z,9.93
2019-02-18T05:53:24.266Z,9.33
2019-02-18T05:55:54.436Z,8.87
2019-02-18T05:58:39.802Z,8.67
2019-02-18T06:01:13.604Z,9.00
2019-02-18T06:03:43.809Z,9.00
2019-02-18T06:06:13.982Z,9.40
2019-02-18T06:08:59.583Z,9.43
2019-02-18T06:11:33.655Z,9.60
2019-02-18T06:14:15.841Z,8.83
2019-02-18T06:16:46.022Z,9.30
2019-02-18T06:19:16.229Z,8.83
2019-02-18T06:21:49.522Z,8.13
2019-02-18T06:24:28.809Z,9.23
2019-02-18T06:27:00.626Z,9.60
2019-02-18T06:29:30.824Z,9.20
2019-02-18T06:32:04.876Z,9.93
2019-02-18T06:34:35.071Z,8.80
2019-02-18T06:37:05.243Z,9.17
2019-02-18T06:39:47.526Z,9.43
2019-02-18T06:42:17.704Z,9.87
2019-02-18T06:44:50.458Z,10.13
2019-02-18T06:47:21.529Z,10.47
2019-02-18T06:50:03.331Z,11.67
2019-02-18T06:52:38.634Z,10.17
2019-02-18T06:55:14.508Z,10.00
2019-02-18T06:58:16.408Z,9.37
2019-02-18T07:00:54.106Z,8.60
2019-02-18T07:03:40.986Z,9.13
2019-02-18T07:06:12.772Z,8.83
2019-02-18T07:08:44.603Z,8.87
2019-02-18T07:11:23.787Z,8.67
2019-02-18T07:13:53.952Z,8.63
2019-02-18T07:16:26.117Z,8.70
2019-02-18T07:19:04.662Z,9.30
2019-02-18T07:21:46.207Z,9.03
2019-02-18T07:24:16.383Z,8.43
2019-02-18T07:26:46.616Z,9.40
2019-02-18T07:29:22.758Z,8.80
2019-02-18T07:31:52.980Z,8.93
2019-02-18T07:34:27.373Z,8.60
2019-02-18T07:36:57.589Z,8.47
2019-02-18T07:39:27.833Z,8.70
2019-02-18T07:41:58.006Z,7.90
2019-02-18T07:44:32.209Z,7.63
2019-02-18T07:47:02.927Z,8.27
2019-02-18T07:49:52.891Z,8.30
2019-02-18T07:52:23.133Z,7.83
2019-02-18T07:54:53.333Z,8.17
2019-02-18T07:57:29.494Z,8.40
2019-02-18T08:00:12.303Z,8.00
2019-02-18T08:02:48.235Z,8.27
2019-02-18T08:05:29.587Z,7.83
2019-02-18T08:07:59.839Z,7.70
2019-02-18T08:10:30.016Z,8.30
2019-02-18T08:13:14.975Z,8.00
2019-02-18T08:15:45.158Z,7.87
2019-02-18T08:18:16.290Z,7.77
2019-02-18T08:20:46.497Z,7.37
2019-02-18T08:23:16.714Z,7.83
2019-02-18T08:25:46.956Z,8.23
2019-02-18T08:28:17.178Z,7.60
2019-02-18T08:30:52.316Z,7.50
2019-02-18T08:33:22.526Z,7.20
2019-02-18T08:35:52.801Z,7.13
2019-02-18T08:38:28.995Z,7.37
2019-02-18T08:40:59.190Z,7.17
2019-02-18T08:43:30.635Z,7.87
2019-02-18T08:46:07.674Z,7.53
2019-02-18T08:48:49.761Z,7.47
2019-02-18T08:51:19.932Z,7.50
2019-02-18T08:54:02.073Z,7.20
2019-02-18T08:56:32.257Z,7.60
2019-02-18T08:59:03.445Z,7.70
2019-02-18T09:01:33.637Z,7.27
2019-02-18T09:04:03.850Z,7.87
2019-02-18T09:06:40.992Z,7.43
2019-02-18T09:09:11.197Z,7.57
2019-02-18T09:11:41.377Z,7.70
2019-02-18T09:14:12.519Z,7.83
2019-02-18T09:16:43.570Z,7.50
2019-02-18T09:19:19.035Z,7.30
2019-02-18T09:21:50.864Z,7.17
2019-02-18T09:24:47.730Z,7.80
2019-02-18T09:27:17.923Z,8.47
2019-02-18T09:29:50.737Z,7.57
2019-02-18T09:32:25.744Z,7.10
2019-02-18T09:35:02.114Z,8.10
2019-02-18T09:37:31.015Z,7.70
2019-02-18T09:40:09.129Z,8.17
2019-02-18T09:42:39.324Z,7.83
2019-02-18T09:45:28.703Z,7.90
2019-02-18T09:47:58.928Z,7.87
2019-02-18T09:50:29.165Z,7.87
2019-02-18T09:52:59.341Z,7.33
2019-02-18T09:55:29.570Z,7.70
2019-02-18T09:58:00.679Z,7.53
2019-02-18T10:00:32.805Z,7.43
2019-02-18T10:03:03.901Z,7.33
2019-02-18T10:05:34.099Z,8.33
2019-02-18T10:08:09.280Z,8.27
2019-02-18T10:10:39.489Z,7.47
2019-02-18T10:13:09.679Z,8.40
2019-02-18T10:15:52.756Z,7.20
2019-02-18T10:18:22.939Z,7.90
2019-02-18T10:20:53.155Z,8.23
2019-02-18T10:23:23.340Z,8.37
2019-02-18T10:25:55.489Z,7.70
2019-02-18T10:28:35.583Z,8.70
2019-02-18T10:31:06.700Z,8.27
2019-02-18T10:33:54.105Z,7.70
2019-02-18T10:36:24.322Z,8.03
2019-02-18T10:38:54.511Z,8.10
2019-02-18T10:41:24.726Z,7.93
2019-02-18T10:43:55.003Z,8.83
2019-02-18T10:46:25.207Z,7.87
2019-02-18T10:48:56.330Z,8.40
2019-02-18T10:51:26.546Z,8.07
2019-02-18T10:53:59.698Z,7.93
2019-02-18T10:56:30.244Z,8.30
2019-02-18T10:59:00.457Z,7.37
2019-02-18T11:01:32.615Z,8.13
2019-02-18T11:04:04.720Z,7.40
2019-02-18T11:06:48.231Z,7.50
2019-02-18T11:09:18.426Z,8.07
2019-02-18T11:11:48.833Z,8.30
2019-02-18T11:14:19.031Z,8.37
2019-02-18T11:16:55.312Z,7.83
2019-02-18T11:19:29.274Z,8.03
2019-02-18T11:21:59.506Z,7.73
2019-02-18T11:24:31.638Z,7.53
2019-02-18T11:27:02.754Z,7.50
2019-02-18T11:29:32.948Z,7.20
2019-02-18T11:32:04.135Z,8.03
2019-02-18T11:34:36.334Z,7.93
2019-02-18T11:37:13.874Z,7.83
2019-02-18T11:39:44.520Z,8.00
2019-02-18T11:42:14.732Z,7.73
2019-02-18T11:44:44.905Z,7.10
2019-02-18T11:47:15.104Z,7.70
2019-02-18T11:49:49.633Z,7.53
2019-02-18T11:52:27.554Z,7.60
2019-02-18T11:55:01.653Z,8.10
2019-02-18T11:57:34.777Z,8.10
2019-02-18T12:00:15.305Z,7.30
2019-02-18T12:03:03.987Z,8.33
2019-02-18T12:05:44.528Z,8.57
2019-02-18T12:08:19.047Z,7.77
2019-02-18T12:10:52.297Z,7.50
2019-02-18T12:13:27.380Z,8.50
2019-02-18T12:15:58.479Z,7.97
2019-02-18T12:18:29.963Z,8.03
2019-02-18T12:21:06.329Z,8.07
2019-02-18T12:23:37.617Z,7.80
2019-02-18T12:26:07.795Z,8.27
2019-02-18T12:28:39.966Z,8.50
2019-02-18T12:31:10.324Z,8.07
2019-02-18T12:33:41.466Z,8.70
2019-02-18T12:36:11.664Z,9.40
2019-02-18T12:38:45.722Z,8.80
2019-02-18T12:41:15.912Z,8.93
2019-02-18T12:43:46.418Z,8.07
2019-02-18T12:46:16.623Z,8.70
2019-02-18T12:48:53.696Z,8.90
2019-02-18T12:51:23.890Z,8.60
2019-02-18T12:54:04.525Z,8.60
2019-02-18T12:56:25.976Z,9.33
2019-02-18T12:58:56.202Z,9.73
2019-02-18T13:01:27.782Z,9.00
2019-02-18T13:04:00.065Z,8.97
2019-02-18T13:06:30.258Z,8.90
2019-02-18T13:09:10.723Z,10.00
2019-02-18T13:11:42.926Z,9.23
2019-02-18T13:14:19.032Z,8.70
2019-02-18T13:16:49.306Z,8.43
2019-02-18T13:19:22.498Z,8.03
2019-02-18T13:21:52.685Z,9.23
2019-02-18T13:24:31.250Z,8.27
2019-02-18T13:27:11.794Z,9.13
2019-02-18T13:29:57.148Z,8.80
2019-02-18T13:32:27.627Z,8.67
2019-02-18T13:35:07.831Z,9.10
2019-02-18T13:37:38.022Z,9.30
2019-02-18T13:40:15.936Z,8.40
2019-02-18T13:42:46.548Z,9.83
2019-02-18T13:45:16.734Z,8.90
2019-02-18T13:47:46.938Z,9.37
2019-02-18T13:50:17.127Z,9.07
2019-02-18T13:52:47.322Z,8.33
2019-02-18T13:55:18.451Z,9.10
2019-02-18T13:57:49.628Z,8.67
2019-02-18T14:00:25.678Z,8.30
2019-02-18T14:03:14.380Z,8.30
2019-02-18T14:05:44.956Z,7.60
2019-02-18T14:08:17.091Z,7.60
2019-02-18T14:10:47.321Z,8.70
2019-02-18T14:13:20.691Z,8.67
2019-02-18T14:15:50.906Z,8.70
2019-02-18T14:18:24.403Z,8.97
2019-02-18T14:20:54.630Z,8.80
2019-02-18T14:23:24.824Z,8.50
2019-02-18T14:25:55.019Z,8.90
2019-02-18T14:28:35.656Z,8.90
2019-02-18T14:31:05.917Z,8.87
2019-02-18T14:33:41.220Z,9.33
2019-02-18T14:36:15.976Z,8.50
2019-02-18T14:39:00.478Z,8.40
2019-02-18T14:41:34.402Z,8.83
2019-02-18T14:44:04.961Z,8.57
2019-02-18T14:46:35.158Z,9.30
2019-02-18T14:49:05.368Z,9.60
2019-02-18T14:51:35.570Z,8.70
2019-02-18T14:54:05.778Z,9.07
2019-02-18T14:56:36.003Z,8.53
2019-02-18T14:59:10.337Z,7.73
2019-02-18T15:01:40.561Z,8.33
2019-02-18T15:04:18.267Z,8.57
2019-02-18T15:07:04.456Z,7.67
2019-02-18T15:09:40.219Z,8.20
2019-02-18T15:12:39.731Z,8.47
2019-02-18T15:15:14.738Z,8.60
2019-02-18T15:17:58.013Z,8.10
2019-02-18T15:20:30.203Z,9.23
2019-02-18T15:23:10.324Z,9.43
2019-02-18T15:25:44.050Z,9.27
2019-02-18T15:28:14.308Z,9.23
2019-02-18T15:30:47.886Z,9.47
2019-02-18T15:33:31.201Z,9.43
2019-02-18T15:36:01.517Z,9.57
2019-02-18T15:38:31.737Z,10.00
2019-02-18T15:41:04.295Z,9.40
2019-02-18T15:43:34.498Z,9.27
2019-02-18T15:46:05.758Z,10.00
2019-02-18T15:48:36.503Z,9.87
2019-02-18T15:51:06.797Z,12.00
2019-02-18T15:54:05.838Z,10.40
2019-02-18T15:56:42.371Z,10.10
2019-02-18T15:59:12.579Z,9.53
2019-02-18T16:01:48.820Z,10.67
2019-02-18T16:04:31.926Z,10.57
2019-02-18T16:07:02.166Z,9.90
2019-02-18T16:09:38.148Z,10.00
2019-02-18T16:12:28.593Z,9.17
2019-02-18T16:14:58.806Z,9.67
2019-02-18T16:17:35.636Z,9.87
2019-02-18T16:20:13.534Z,10.07
2019-02-18T16:22:43.797Z,9.80
2019-02-18T16:25:24.190Z,10.13
2019-02-18T16:27:54.390Z,9.70
2019-02-18T16:30:24.970Z,9.33
2019-02-18T16:32:57.179Z,10.00
2019-02-18T16:35:27.668Z,8.97
2019-02-18T16:38:22.949Z,9.53
2019-02-18T16:40:53.171Z,9.27
2019-02-18T16:43:23.644Z,10.03
2019-02-18T16:45:57.120Z,9.70
2019-02-18T16:48:27.497Z,8.93
2019-02-18T16:51:10.623Z,7.97
2019-02-18T16:53:40.815Z,6.13
2019-02-18T16:56:11.037Z,5.03
2019-02-18T16:58:52.274Z,4.67
2019-02-18T17:01:29.817Z,4.53
2019-02-18T17:04:00.005Z,4.10
2019-02-18T17:06:37.747Z,4.47
2019-02-18T17:09:12.227Z,4.63
2019-02-18T17:11:42.701Z,4.53
2019-02-18T17:14:13.956Z,5.33
2019-02-18T17:16:44.145Z,5.23
2019-02-18T17:19:23.408Z,5.63
2019-02-18T17:21:53.607Z,5.37
2019-02-18T17:24:37.113Z,5.50
2019-02-18T17:27:07.333Z,5.30
2019-02-18T17:29:50.180Z,5.17
2019-02-18T17:32:22.715Z,5.13
2019-02-18T17:34:53.832Z,5.20
2019-02-18T17:37:24.044Z,6.60
2019-02-18T17:39:54.243Z,5.50
2019-02-18T17:42:24.437Z,5.30
2019-02-18T17:44:56.575Z,5.90
2019-02-18T17:47:26.776Z,5.43
2019-02-18T17:49:56.978Z,5.87
2019-02-18T17:52:27.167Z,6.00
2019-02-18T17:55:04.643Z,5.80
2019-02-18T17:57:41.666Z,5.63
2019-02-18T18:00:15.964Z,6.13
2019-02-18T18:02:51.147Z,5.40
2019-02-18T18:05:28.839Z,6.17
2019-02-18T18:08:02.459Z,5.80
2019-02-18T18:10:32.748Z,6.23
2019-02-18T18:13:02.947Z,6.13
2019-02-18T18:15:38.662Z,6.20
2019-02-18T18:18:08.917Z,5.73
2019-02-18T18:20:39.501Z,6.73
2019-02-18T18:23:09.698Z,7.13
2019-02-18T18:25:39.918Z,6.63
2019-02-18T18:28:37.649Z,6.83
2019-02-18T18:31:20.412Z,8.07
2019-02-18T18:33:50.626Z,7.10
2019-02-18T18:36:42.255Z,7.10
2019-02-18T18:39:12.437Z,7.13
2019-02-18T18:41:50.867Z,7.67
2019-02-18T18:44:31.951Z,7.67
2019-02-18T18:47:10.741Z,8.30
2019-02-18T18:49:54.227Z,7.73
2019-02-18T18:52:24.427Z,7.50
2019-02-18T18:54:56.555Z,7.83
2019-02-18T18:57:26.741Z,7.73
2019-02-18T18:59:56.949Z,7.33
2019-02-18T19:02:38.430Z,7.90
2019-02-18T19:05:18.728Z,7.90
2019-02-18T19:08:06.111Z,8.40
2019-02-18T19:10:36.486Z,8.33
2019-02-18T19:13:06.860Z,8.70
2019-02-18T19:15:49.794Z,9.47
2019-02-18T19:18:20.008Z,8.77
2019-02-18T19:20:51.276Z,8.70
2019-02-18T19:23:46.643Z,9.40
2019-02-18T19:26:21.681Z,8.67
2019-02-18T19:28:52.189Z,8.30
2019-02-18T19:31:22.363Z,8.63
2019-02-18T19:33:52.551Z,8.73
2019-02-18T19:36:46.525Z,8.23
2019-02-18T19:39:48.516Z,8.23
2019-02-18T19:42:20.745Z,8.10
2019-02-18T19:44:50.931Z,9.13
2019-02-18T19:47:36.392Z,8.07
2019-02-18T19:50:07.735Z,8.27
2019-02-18T19:52:37.958Z,8.77
2019-02-18T19:55:10.185Z,8.70
2019-02-18T19:57:40.454Z,8.60
2019-02-18T20:00:18.798Z,8.13
2019-02-18T20:02:49.059Z,8.67
2019-02-18T20:05:34.593Z,9.83
2019-02-18T20:08:09.070Z,8.97
2019-02-18T20:10:39.415Z,9.17
2019-02-18T20:13:09.604Z,8.97
2019-02-18T20:16:19.368Z,8.87
2019-02-18T20:18:49.569Z,7.73
2019-02-18T20:21:31.732Z,8.43
2019-02-18T20:24:01.930Z,8.83
2019-02-18T20:26:41.282Z,8.53
2019-02-18T20:29:13.718Z,8.17
2019-02-18T20:31:44.199Z,8.80
2019-02-18T20:34:14.412Z,8.97
2019-02-18T20:36:44.586Z,9.23
2019-02-18T20:39:15.047Z,9.40
2019-02-18T20:41:52.256Z,8.90
2019-02-18T20:44:22.443Z,8.67
2019-02-18T20:46:52.635Z,9.00
2019-02-18T20:49:23.120Z,10.23
2019-02-18T20:51:55.592Z,10.10
2019-02-18T20:54:25.809Z,10.10
2019-02-18T20:57:22.522Z,10.93
2019-02-18T20:59:53.099Z,11.07
2019-02-18T21:02:27.890Z,10.60
2019-02-18T21:05:05.684Z,10.77
2019-02-18T21:07:46.890Z,9.27
2019-02-18T21:10:20.944Z,9.23
2019-02-18T21:12:51.213Z,8.97
2019-02-18T21:15:21.429Z,9.83
2019-02-18T21:17:53.518Z,8.90
2019-02-18T21:20:23.703Z,9.60
2019-02-18T21:22:55.913Z,10.00
2019-02-18T21:25:30.586Z,8.40
2019-02-18T21:28:07.852Z,10.10
2019-02-18T21:30:38.043Z,9.23
2019-02-18T21:33:08.598Z,9.77
2019-02-18T21:35:45.203Z,8.63
2019-02-18T21:38:22.232Z,9.37
2019-02-18T21:40:52.449Z,9.67
2019-02-18T21:43:53.150Z,9.40
2019-02-18T21:46:34.666Z,9.50
2019-02-18T21:49:29.439Z,10.17
2019-02-18T21:52:00.578Z,10.30
2019-02-18T21:55:00.328Z,10.93
2019-02-18T21:57:30.928Z,10.37
2019-02-18T22:00:22.761Z,10.13
2019-02-18T22:03:02.402Z,10.33
2019-02-18T22:05:51.781Z,10.07
2019-02-18T22:08:23.232Z,10.23
2019-02-18T22:10:55.338Z,11.13
2019-02-18T22:13:25.718Z,11.80
2019-02-18T22:15:55.919Z,11.27
2019-02-18T22:18:27.083Z,11.67
2019-02-18T22:20:57.275Z,10.50
2019-02-18T22:23:29.983Z,9.57
2019-02-18T22:26:00.680Z,9.67
2019-02-18T22:28:31.330Z,9.40
2019-02-18T22:31:14.502Z,9.20
2019-02-18T22:33:44.799Z,9.07
2019-02-18T22:36:43.585Z,9.63
2019-02-18T22:39:13.951Z,9.70
2019-02-18T22:41:49.956Z,9.80
2019-02-18T22:44:26.041Z,10.07
2019-02-18T22:47:00.293Z,9.83
2019-02-18T22:49:32.697Z,9.90
2019-02-18T22:52:20.047Z,10.07
2019-02-18T22:54:50.973Z,10.10
2019-02-18T22:57:55.979Z,10.33
2019-02-18T23:00:45.630Z,9.90
2019-02-18T23:03:30.358Z,9.77
2019-02-18T23:06:07.489Z,10.10
2019-02-18T23:08:37.699Z,9.50
2019-02-18T23:11:09.575Z,10.43
2019-02-18T23:13:39.818Z,10.23
2019-02-18T23:16:10.074Z,10.80
2019-02-18T23:18:44.434Z,10.83
2019-02-18T23:21:20.849Z,9.50
2019-02-18T23:23:51.395Z,9.97
2019-02-18T23:26:21.873Z,10.60
2019-02-18T23:28:52.320Z,9.37
2019-02-18T23:33:55.996Z,10.03
2019-02-18T23:36:26.793Z,9.87
2019-02-18T23:39:16.569Z,10.03
2019-02-18T23:41:46.996Z,9.73
2019-02-18T23:44:33.560Z,9.70
2019-02-18T23:47:03.739Z,9.93
2019-02-18T23:49:33.934Z,9.10
2019-02-18T23:52:04.116Z,9.80
2019-02-18T23:54:34.318Z,9.60
2019-02-18T23:57:04.502Z,9.37
2019-02-18T23:59:41.824Z,10.23
